createdAt,value
2017-10-12T00:23:32.678Z,99.90
2017-10-12T00:49:05.907Z,99.90
2017-10-12T00:56:40.510Z,99.90
2017-10-12T01:53:08.951Z,99.90
2017-10-12T02:00:43.716Z,99.90
2017-10-12T02:13:28.688Z,99.90
2017-10-12T02:15:58.294Z,99.90
2017-10-12T02:18:28.283Z,99.90
2017-10-12T02:21:00.109Z,99.90
2017-10-12T02:28:35.490Z,99.90
2017-10-12T02:31:05.395Z,99.90
2017-10-12T02:33:39.107Z,99.90
2017-10-12T02:36:09.427Z,99.90
2017-10-12T02:38:38.550Z,99.90
2017-10-12T02:41:07.758Z,99.90
2017-10-12T02:43:36.503Z,99.90
2017-10-12T02:46:05.168Z,99.90
2017-10-12T02:48:34.031Z,99.90
2017-10-12T02:51:02.785Z,99.90
2017-10-12T02:53:31.185Z,99.90
2017-10-12T02:56:00.246Z,99.90
2017-10-12T02:58:29.798Z,99.90
2017-10-12T03:00:58.069Z,99.90
2017-10-12T03:03:27.023Z,99.90
2017-10-12T03:05:55.835Z,99.90
2017-10-12T03:08:25.263Z,99.90
2017-10-12T03:10:54.248Z,99.90
2017-10-12T03:13:23.199Z,99.90
2017-10-12T03:15:51.529Z,99.90
2017-10-12T03:18:19.903Z,99.90
2017-10-12T03:20:48.211Z,99.90
2017-10-12T03:23:17.179Z,99.90
2017-10-12T03:25:46.561Z,99.90
2017-10-12T03:28:15.983Z,99.90
2017-10-12T03:30:45.470Z,99.90
2017-10-12T03:33:14.293Z,99.90
2017-10-12T03:35:43.230Z,99.90
2017-10-12T03:38:12.312Z,99.90
2017-10-12T03:40:41.145Z,99.90
2017-10-12T03:43:10.033Z,99.90
2017-10-12T03:45:38.438Z,99.90
2017-10-12T03:48:08.695Z,99.90
2017-10-12T03:50:37.340Z,99.90
2017-10-12T03:53:06.395Z,99.90
2017-10-12T03:55:35.394Z,99.90
2017-10-12T03:58:04.214Z,99.90
2017-10-12T04:00:33.214Z,99.90
2017-10-12T04:03:03.209Z,99.90
2017-10-12T04:05:32.238Z,99.90
2017-10-12T04:08:01.781Z,99.90
2017-10-12T04:10:34.142Z,99.90
2017-10-12T04:13:03.185Z,99.90
2017-10-12T04:15:31.939Z,99.90
2017-10-12T04:18:00.876Z,99.90
2017-10-12T04:20:29.855Z,99.90
2017-10-12T04:22:58.554Z,99.90
2017-10-12T04:25:28.449Z,99.90
2017-10-12T04:27:58.044Z,99.90
2017-10-12T04:30:31.152Z,99.90
2017-10-12T04:33:00.164Z,99.90
2017-10-12T04:35:29.121Z,99.90
2017-10-12T04:37:57.769Z,99.90
2017-10-12T04:40:26.771Z,99.90
2017-10-12T04:42:56.210Z,99.90
2017-10-12T04:45:25.740Z,99.90
2017-10-12T04:47:55.502Z,99.90
2017-10-12T04:50:25.593Z,99.90
2017-10-12T04:52:55.905Z,99.90
2017-10-12T04:55:24.953Z,99.90
2017-10-12T04:57:53.978Z,99.90
2017-10-12T05:00:22.980Z,99.90
2017-10-12T05:02:52.025Z,99.90
2017-10-12T05:05:21.495Z,99.90
2017-10-12T05:07:50.598Z,99.90
2017-10-12T05:10:20.762Z,99.90
2017-10-12T05:12:49.738Z,99.90
2017-10-12T05:15:18.646Z,99.90
2017-10-12T05:17:47.641Z,99.90
2017-10-12T05:20:16.565Z,99.90
2017-10-12T05:22:45.655Z,99.90
2017-10-12T05:25:15.160Z,99.90
2017-10-12T05:27:43.698Z,99.90
2017-10-12T05:30:12.420Z,99.90
2017-10-12T05:32:41.111Z,99.90
2017-10-12T05:35:09.857Z,99.90
2017-10-12T05:37:38.530Z,99.90
2017-10-12T05:40:07.201Z,99.90
2017-10-12T05:42:35.908Z,99.90
2017-10-12T05:45:04.578Z,99.90
2017-10-12T05:47:33.253Z,99.90
2017-10-12T05:50:02.723Z,99.90
2017-10-12T05:52:31.406Z,99.90
2017-10-12T05:54:59.889Z,99.90
2017-10-12T05:57:28.522Z,99.90
2017-10-12T05:59:57.203Z,99.90
2017-10-12T06:02:25.881Z,99.90
2017-10-12T06:04:54.405Z,99.90
2017-10-12T06:07:23.362Z,99.90
2017-10-12T06:09:52.624Z,99.90
2017-10-12T06:12:21.251Z,99.90
2017-10-12T06:14:49.999Z,99.90
2017-10-12T06:17:18.561Z,99.90
2017-10-12T06:19:47.561Z,99.90
2017-10-12T06:22:16.591Z,99.90
2017-10-12T06:27:27.220Z,99.90
2017-10-12T06:29:55.733Z,99.90
2017-10-12T06:32:24.398Z,99.90
2017-10-12T06:34:53.066Z,99.90
2017-10-12T06:37:21.743Z,99.90
2017-10-12T06:39:50.449Z,99.90
2017-10-12T06:42:18.757Z,99.90
2017-10-12T06:44:47.425Z,99.90
2017-10-12T06:47:15.801Z,99.90
2017-10-12T06:49:44.465Z,99.90
2017-10-12T06:52:13.155Z,99.90
2017-10-12T06:54:41.553Z,99.90
2017-10-12T06:57:09.957Z,99.90
2017-10-12T06:59:39.128Z,99.90
2017-10-12T07:02:07.557Z,99.90
2017-10-12T07:04:35.955Z,99.90
2017-10-12T07:07:04.350Z,99.90
2017-10-12T07:09:32.802Z,99.90
2017-10-12T07:12:01.210Z,99.90
2017-10-12T07:14:29.609Z,99.90
2017-10-12T07:16:57.869Z,99.90
2017-10-12T07:19:26.266Z,99.90
2017-10-12T07:21:54.507Z,99.90
2017-10-12T07:24:23.167Z,99.90
2017-10-12T07:26:52.331Z,71.20
2017-10-12T07:29:20.738Z,70.70
2017-10-12T07:31:49.949Z,58.30
2017-10-12T07:34:18.356Z,58.10
2017-10-12T07:36:46.771Z,59.20
2017-10-12T07:39:15.190Z,51.80
2017-10-12T07:41:44.353Z,50.70
2017-10-12T07:44:12.760Z,51.00
2017-10-12T07:46:41.185Z,47.50
2017-10-12T07:49:09.585Z,48.00
2017-10-12T07:51:37.994Z,44.20
2017-10-12T07:54:07.173Z,44.30
2017-10-12T07:56:35.241Z,44.00
2017-10-12T07:59:03.653Z,40.40
2017-10-12T08:01:32.661Z,42.10
2017-10-12T08:04:00.870Z,42.00
2017-10-12T08:06:29.269Z,40.70
2017-10-12T08:08:57.699Z,41.30
2017-10-12T08:11:26.097Z,41.10
2017-10-12T08:13:54.499Z,42.00
2017-10-12T08:16:22.922Z,40.60
2017-10-12T08:18:51.906Z,36.40
2017-10-12T08:21:20.317Z,36.40
2017-10-12T08:23:49.506Z,37.70
2017-10-12T08:26:17.910Z,37.60
2017-10-12T08:28:46.307Z,34.60
2017-10-12T08:31:14.718Z,35.80
2017-10-12T08:33:43.117Z,38.60
2017-10-12T08:36:12.287Z,41.10
2017-10-12T08:38:40.705Z,41.10
2017-10-12T08:41:09.870Z,42.50
2017-10-12T08:43:38.294Z,42.40
2017-10-12T08:46:06.708Z,45.20
2017-10-12T08:48:35.122Z,47.30
2017-10-12T08:51:03.565Z,46.10
2017-10-12T08:53:32.231Z,48.10
2017-10-12T08:56:00.880Z,47.70
2017-10-12T08:58:30.109Z,47.20
2017-10-12T09:00:58.508Z,47.30
2017-10-12T09:03:26.906Z,48.80
2017-10-12T09:05:55.333Z,51.90
2017-10-12T09:08:23.731Z,47.90
2017-10-12T09:10:52.131Z,42.60
2017-10-12T09:13:20.576Z,44.60
2017-10-12T09:15:49.741Z,40.60
2017-10-12T09:18:18.153Z,40.40
2017-10-12T09:20:47.371Z,42.90
2017-10-12T09:23:15.770Z,42.70
2017-10-12T09:25:44.165Z,41.00
2017-10-12T09:28:12.282Z,42.10
2017-10-12T09:30:41.109Z,45.30
2017-10-12T09:33:08.818Z,45.20
2017-10-12T09:35:36.900Z,42.20
2017-10-12T09:38:04.613Z,40.40
2017-10-12T09:40:32.322Z,41.90
2017-10-12T09:43:00.433Z,39.70
2017-10-12T09:45:27.973Z,37.00
2017-10-12T09:47:56.379Z,36.50
2017-10-12T09:50:24.100Z,34.90
2017-10-12T09:52:52.512Z,36.40
2017-10-12T09:55:20.570Z,33.80
2017-10-12T09:57:49.781Z,34.20
2017-10-12T10:00:17.841Z,34.20
2017-10-12T10:02:47.025Z,31.10
2017-10-12T10:05:15.463Z,31.00
2017-10-12T10:07:43.514Z,29.60
2017-10-12T10:10:11.566Z,30.10
2017-10-12T10:12:40.768Z,27.80
2017-10-12T10:15:09.193Z,27.80
2017-10-12T10:17:37.411Z,28.40
2017-10-12T10:20:05.818Z,28.70
2017-10-12T10:22:34.997Z,28.60
2017-10-12T10:25:04.189Z,29.90
2017-10-12T10:27:32.588Z,29.80
2017-10-12T10:30:01.801Z,28.60
2017-10-12T10:32:30.205Z,28.60
2017-10-12T10:34:58.613Z,29.50
2017-10-12T10:37:27.077Z,29.70
2017-10-12T10:39:55.491Z,29.40
2017-10-12T10:42:23.885Z,28.90
2017-10-12T10:44:53.078Z,29.00
2017-10-12T10:47:38.865Z,29.00
2017-10-12T10:50:08.066Z,30.50
2017-10-12T10:52:37.262Z,29.50
2017-10-12T10:55:05.665Z,29.40
2017-10-12T10:57:34.090Z,31.00
2017-10-12T11:00:02.504Z,31.40
2017-10-12T11:02:31.686Z,27.80
2017-10-12T11:05:00.140Z,27.70
2017-10-12T11:07:28.578Z,29.00
2017-10-12T11:09:57.045Z,28.50
2017-10-12T11:12:26.309Z,29.50
2017-10-12T11:14:54.760Z,29.40
2017-10-12T11:17:23.195Z,30.00
2017-10-12T11:19:51.645Z,31.70
2017-10-12T11:22:20.088Z,28.90
2017-10-12T11:24:48.515Z,30.00
2017-10-12T11:27:16.981Z,29.80
2017-10-12T11:29:45.666Z,30.20
2017-10-12T11:32:14.124Z,27.80
2017-10-12T11:34:42.579Z,29.60
2017-10-12T11:37:11.809Z,29.60
2017-10-12T11:39:40.264Z,29.60
2017-10-12T11:42:09.456Z,28.10
2017-10-12T11:44:37.918Z,28.10
2017-10-12T11:47:06.342Z,28.20
2017-10-12T11:49:35.543Z,27.80
2017-10-12T11:52:04.019Z,27.80
2017-10-12T11:54:33.194Z,30.30
2017-10-12T11:57:01.612Z,30.30
2017-10-12T11:59:30.078Z,29.60
2017-10-12T12:01:59.260Z,29.30
2017-10-12T12:04:27.673Z,29.20
2017-10-12T12:06:56.092Z,28.50
2017-10-12T12:09:24.581Z,28.50
2017-10-12T12:11:53.037Z,31.10
2017-10-12T12:14:21.486Z,29.70
2017-10-12T12:16:49.943Z,29.90
2017-10-12T12:19:18.353Z,29.90
2017-10-12T12:21:47.536Z,27.80
2017-10-12T12:24:15.976Z,27.80
2017-10-12T12:26:44.408Z,30.40
2017-10-12T12:29:13.607Z,28.40
2017-10-12T12:31:42.037Z,28.50
2017-10-12T12:34:10.438Z,29.40
2017-10-12T12:36:38.846Z,29.80
2017-10-12T12:39:08.042Z,27.40
2017-10-12T12:41:37.215Z,28.20
2017-10-12T12:44:05.617Z,28.20
2017-10-12T12:46:34.817Z,29.60
2017-10-12T12:49:04.015Z,29.70
2017-10-12T12:51:33.182Z,29.60
2017-10-12T12:54:01.602Z,29.60
2017-10-12T12:56:30.777Z,30.30
2017-10-12T12:58:59.182Z,30.30
2017-10-12T13:01:28.380Z,31.50
2017-10-12T13:03:57.555Z,29.60
2017-10-12T13:06:25.964Z,29.50
2017-10-12T13:08:55.165Z,28.00
2017-10-12T13:11:23.572Z,28.00
2017-10-12T13:13:51.993Z,27.70
2017-10-12T13:16:20.417Z,27.30
2017-10-12T13:18:48.821Z,28.50
2017-10-12T13:21:17.230Z,28.40
2017-10-12T13:23:45.667Z,29.50
2017-10-12T13:26:14.076Z,30.00
2017-10-12T13:28:42.507Z,32.00
2017-10-12T13:31:10.988Z,30.40
2017-10-12T13:33:39.434Z,30.00
2017-10-12T13:36:07.897Z,34.90
2017-10-12T13:38:36.414Z,38.80
2017-10-12T13:41:04.861Z,43.00
2017-10-12T13:43:33.330Z,42.30
2017-10-12T13:46:01.792Z,37.00
2017-10-12T13:48:30.203Z,40.70
2017-10-12T13:50:58.629Z,43.90
2017-10-12T13:53:27.832Z,38.10
2017-10-12T13:55:57.040Z,35.60
2017-10-12T13:58:24.770Z,35.60
2017-10-12T14:00:52.554Z,33.50
2017-10-12T14:03:21.738Z,35.50
2017-10-12T14:05:49.841Z,35.50
2017-10-12T14:08:18.300Z,41.80
2017-10-12T14:10:46.739Z,43.90
2017-10-12T14:13:15.172Z,38.90
2017-10-12T14:15:44.416Z,35.10
2017-10-12T14:18:12.830Z,35.10
2017-10-12T14:20:41.237Z,35.80
2017-10-12T14:23:10.533Z,33.20
2017-10-12T14:25:39.727Z,35.70
2017-10-12T14:28:08.168Z,35.10
2017-10-12T14:30:36.621Z,39.00
2017-10-12T14:33:05.063Z,38.70
2017-10-12T14:35:33.512Z,42.60
2017-10-12T14:38:02.002Z,43.60
2017-10-12T14:40:30.465Z,45.30
2017-10-12T14:42:59.130Z,46.00
2017-10-12T14:45:27.611Z,48.80
2017-10-12T14:47:56.026Z,46.20
2017-10-12T14:50:24.434Z,47.20
2017-10-12T14:52:52.906Z,48.60
2017-10-12T14:55:21.365Z,51.90
2017-10-12T14:57:49.787Z,52.90
2017-10-12T15:00:18.232Z,54.50
2017-10-12T15:02:46.471Z,54.80
2017-10-12T15:05:14.717Z,54.60
2017-10-12T15:07:42.959Z,57.40
2017-10-12T15:10:11.396Z,56.40
2017-10-12T15:12:39.824Z,59.60
2017-10-12T15:15:08.269Z,62.60
2017-10-12T15:17:36.668Z,63.00
2017-10-12T15:20:05.134Z,64.80
2017-10-12T15:22:33.580Z,69.80
2017-10-12T15:25:01.988Z,70.90
2017-10-12T15:27:31.177Z,90.90
2017-10-12T15:29:59.446Z,90.90
2017-10-12T15:32:27.855Z,93.40
2017-10-12T15:34:56.254Z,95.40
2017-10-12T15:37:24.689Z,99.90
2017-10-12T15:39:53.868Z,99.90
2017-10-12T15:42:22.280Z,99.90
2017-10-12T15:44:51.518Z,99.90
2017-10-12T15:47:19.758Z,99.90
2017-10-12T15:49:48.929Z,99.90
2017-10-12T15:52:17.369Z,99.90
2017-10-12T15:54:45.769Z,99.90
2017-10-12T15:57:14.174Z,99.90
2017-10-12T15:59:42.624Z,99.90
2017-10-12T16:02:11.269Z,99.90
2017-10-12T16:04:40.438Z,99.90
2017-10-12T16:07:08.889Z,99.90
2017-10-12T16:09:37.299Z,99.90
2017-10-12T16:12:05.702Z,99.90
2017-10-12T16:14:34.898Z,99.90
2017-10-12T16:17:03.329Z,99.90
2017-10-12T16:19:31.746Z,99.90
2017-10-12T16:22:00.945Z,99.90
2017-10-12T16:24:29.361Z,99.90
2017-10-12T16:26:57.901Z,99.90
2017-10-12T16:29:26.313Z,99.90
2017-10-12T16:31:54.775Z,99.90
2017-10-12T16:34:23.182Z,99.90
2017-10-12T16:36:51.410Z,99.90
2017-10-12T16:39:22.286Z,99.90
2017-10-12T16:41:51.278Z,99.90
2017-10-12T16:44:20.274Z,99.90
2017-10-12T16:46:48.726Z,99.90
2017-10-12T16:49:17.128Z,99.90
2017-10-12T16:51:46.378Z,99.90
2017-10-12T16:54:14.809Z,99.90
2017-10-12T16:56:43.989Z,99.90
2017-10-12T16:59:12.394Z,99.90
2017-10-12T17:01:41.974Z,99.90
2017-10-12T17:04:10.388Z,99.90
2017-10-12T17:06:39.558Z,99.90
2017-10-12T17:09:07.973Z,99.90
2017-10-12T17:11:36.218Z,99.90
2017-10-12T17:14:04.507Z,99.90
2017-10-12T17:16:32.971Z,99.90
2017-10-12T17:19:01.207Z,99.90
2017-10-12T17:21:29.424Z,99.90
2017-10-12T17:23:57.845Z,99.90
2017-10-12T17:26:26.257Z,99.90
2017-10-12T17:28:54.694Z,99.90
2017-10-12T17:31:24.052Z,99.90
2017-10-12T17:33:52.512Z,99.90
2017-10-12T17:36:23.052Z,99.90
2017-10-12T17:38:53.293Z,99.90
2017-10-12T17:43:51.436Z,99.90
2017-10-12T17:46:19.919Z,99.90
2017-10-12T17:48:49.075Z,99.90
2017-10-12T17:51:17.545Z,99.90
2017-10-12T17:53:46.070Z,99.90
2017-10-12T17:56:14.608Z,99.90
2017-10-12T17:58:43.306Z,99.90
2017-10-12T18:01:12.045Z,99.90
2017-10-12T18:03:43.731Z,99.90
2017-10-12T18:08:44.970Z,99.90
2017-10-12T18:24:59.264Z,99.90
2017-10-12T18:27:27.822Z,99.90
2017-10-12T18:29:56.303Z,99.90
2017-10-12T18:32:24.881Z,99.90
2017-10-12T18:34:53.869Z,99.90
2017-10-12T18:37:23.083Z,99.90
2017-10-12T18:39:52.749Z,99.90
2017-10-12T18:42:21.761Z,99.90
2017-10-12T18:44:51.788Z,99.90
2017-10-12T18:47:20.853Z,99.90
2017-10-12T18:49:51.028Z,99.90
2017-10-12T18:52:21.068Z,99.90
2017-10-12T18:54:51.267Z,99.90
2017-10-12T18:57:22.097Z,99.90
2017-10-12T18:59:52.722Z,99.90
2017-10-12T19:02:23.082Z,99.90
2017-10-12T19:04:53.976Z,99.90
2017-10-12T19:07:23.189Z,99.90
2017-10-12T19:09:51.782Z,99.90
2017-10-12T19:12:20.305Z,99.90
2017-10-12T19:14:49.193Z,99.90
2017-10-12T19:17:17.956Z,99.90
2017-10-12T19:19:48.530Z,99.90
2017-10-12T19:22:15.326Z,99.90
2017-10-12T19:24:43.743Z,99.90
2017-10-12T19:27:12.386Z,99.90
2017-10-12T19:29:41.182Z,99.90
2017-10-12T19:32:09.041Z,99.90
2017-10-12T19:34:37.158Z,99.90
2017-10-12T19:37:06.942Z,99.90
2017-10-12T19:39:35.736Z,99.90
2017-10-12T19:42:04.841Z,99.90
2017-10-12T19:44:34.042Z,99.90
2017-10-12T19:47:05.371Z,99.90
2017-10-12T19:49:34.218Z,99.90
2017-10-12T19:52:03.777Z,99.90
2017-10-12T19:54:32.746Z,99.90
2017-10-12T19:57:01.992Z,99.90
2017-10-12T19:59:30.772Z,99.90
2017-10-12T20:01:59.564Z,99.90
2017-10-12T20:04:28.092Z,99.90
2017-10-12T20:06:56.993Z,99.90
2017-10-12T20:09:25.822Z,99.90
2017-10-12T20:11:54.576Z,99.90
2017-10-12T20:14:23.391Z,99.90
2017-10-12T20:16:52.318Z,99.90
2017-10-12T20:19:21.162Z,99.90
2017-10-12T20:21:50.771Z,99.90
2017-10-12T20:26:48.359Z,99.90
2017-10-12T20:29:32.148Z,99.90
2017-10-12T20:31:45.832Z,99.90
2017-10-12T20:34:15.211Z,99.90
2017-10-12T20:36:43.951Z,99.90
2017-10-12T20:39:12.699Z,99.90
2017-10-12T20:44:10.655Z,99.90
2017-10-12T20:46:40.082Z,99.90
2017-10-12T20:49:08.896Z,99.90
2017-10-12T20:51:37.794Z,99.90
2017-10-12T20:54:07.017Z,99.90
2017-10-12T20:56:37.415Z,99.90
2017-10-12T20:59:05.991Z,99.90
2017-10-12T21:01:35.508Z,99.90
2017-10-12T21:04:04.272Z,99.90
2017-10-12T21:06:33.065Z,99.90
2017-10-12T21:09:02.592Z,99.90
2017-10-12T21:11:31.370Z,99.90
2017-10-12T21:14:00.966Z,99.90
2017-10-12T21:16:30.529Z,99.90
2017-10-12T21:18:59.281Z,99.90
2017-10-12T21:21:28.066Z,99.90
2017-10-12T21:23:56.858Z,99.90
2017-10-12T21:26:25.630Z,99.90
2017-10-12T21:28:55.232Z,99.90
2017-10-12T21:31:24.792Z,99.90
2017-10-12T21:33:53.551Z,99.90
2017-10-12T21:36:22.345Z,99.90
2017-10-12T21:38:51.108Z,99.90
2017-10-12T21:41:19.913Z,99.90
2017-10-12T21:43:49.462Z,99.90
2017-10-12T21:46:18.255Z,99.90
2017-10-12T21:48:47.097Z,99.90
2017-10-12T21:51:15.219Z,99.90
2017-10-12T21:53:44.019Z,99.90
2017-10-12T22:01:40.992Z,99.90
2017-10-12T22:25:26.113Z,99.90
2017-10-12T22:28:26.257Z,99.90
2017-10-12T22:59:05.822Z,99.90
2017-10-12T23:04:12.634Z,99.90
2017-10-12T23:06:42.176Z,99.90
2017-10-12T23:32:43.158Z,99.90
2017-10-12T23:35:12.024Z,99.90
2017-10-12T23:37:40.869Z,99.90
2017-10-12T23:40:09.666Z,99.90
2017-10-12T23:42:38.494Z,99.90
2017-10-12T23:45:07.866Z,99.90
2017-10-12T23:47:36.705Z,99.90
2017-10-12T23:50:05.496Z,99.90
2017-10-12T23:52:34.349Z,99.90
2017-10-12T23:55:03.147Z,99.90
2017-10-12T23:57:32.009Z,99.90
